createdAt,value
2023-01-17T00:02:03.795Z,15.50
2023-01-17T00:04:48.696Z,13.90
2023-01-17T00:07:37.014Z,15.40
2023-01-17T00:10:29.855Z,14.60
2023-01-17T00:13:00.376Z,15.10
2023-01-17T00:15:30.647Z,15.10
2023-01-17T00:17:57.929Z,13.20
2023-01-17T00:20:46.987Z,15.00
2023-01-17T00:23:41.504Z,17.00
2023-01-17T00:26:16.816Z,14.60
2023-01-17T00:28:44.512Z,12.80
2023-01-17T00:31:13.711Z,14.90
2023-01-17T00:33:40.327Z,13.60
2023-01-17T00:36:08.409Z,15.00
2023-01-17T00:38:38.357Z,13.20
2023-01-17T00:41:12.192Z,14.40
2023-01-17T00:43:57.529Z,15.50
2023-01-17T00:46:43.342Z,15.00
2023-01-17T00:49:28.750Z,15.10
2023-01-17T00:52:13.774Z,16.60
2023-01-17T00:54:59.170Z,16.80
2023-01-17T00:57:44.807Z,17.80
2023-01-17T01:00:30.715Z,15.10
2023-01-17T01:03:15.613Z,16.10
2023-01-17T01:06:00.807Z,14.60
2023-01-17T01:08:48.548Z,15.70
2023-01-17T01:11:39.563Z,16.90
2023-01-17T01:14:28.577Z,14.20
2023-01-17T01:17:14.040Z,16.00
2023-01-17T01:19:59.370Z,14.30
2023-01-17T01:22:44.339Z,15.20
2023-01-17T01:25:29.688Z,18.00
2023-01-17T01:28:31.788Z,20.00
2023-01-17T01:31:21.984Z,20.80
2023-01-17T01:33:50.841Z,18.20
2023-01-17T01:36:17.444Z,24.20
2023-01-17T01:38:43.893Z,26.30
2023-01-17T01:41:10.334Z,22.00
2023-01-17T01:43:54.047Z,17.80
2023-01-17T01:46:26.814Z,18.50
2023-01-17T01:49:00.517Z,19.00
2023-01-17T01:51:38.581Z,18.10
2023-01-17T01:54:14.110Z,19.90
2023-01-17T01:56:41.717Z,21.30
2023-01-17T01:59:12.611Z,20.80
2023-01-17T02:01:39.190Z,19.80
2023-01-17T02:04:10.448Z,16.90
2023-01-17T02:07:10.341Z,20.80
2023-01-17T02:09:37.659Z,20.00
2023-01-17T02:13:37.665Z,19.20
2023-01-17T02:16:24.848Z,18.80
2023-01-17T02:19:07.119Z,15.60
2023-01-17T02:22:16.316Z,17.60
2023-01-17T02:25:31.163Z,19.90
2023-01-17T02:28:46.804Z,16.90
2023-01-17T02:31:37.391Z,18.50
2023-01-17T02:34:19.136Z,19.60
2023-01-17T02:37:26.213Z,20.10
2023-01-17T02:40:08.129Z,20.30
2023-01-17T02:42:42.310Z,22.90
2023-01-17T02:45:14.454Z,18.60
2023-01-17T02:47:40.916Z,18.70
2023-01-17T02:50:29.964Z,18.60
2023-01-17T02:53:35.255Z,17.20
2023-01-17T02:56:49.628Z,16.40
2023-01-17T02:59:33.727Z,16.80
2023-01-17T03:02:41.531Z,15.90
2023-01-17T03:05:20.507Z,18.60
2023-01-17T03:07:48.392Z,17.00
2023-01-17T03:10:18.486Z,18.50
2023-01-17T03:12:45.460Z,18.00
2023-01-17T03:15:17.634Z,17.10
2023-01-17T03:17:53.501Z,17.40
2023-01-17T03:20:22.560Z,17.10
2023-01-17T03:22:49.359Z,19.50
2023-01-17T03:25:17.519Z,16.40
2023-01-17T03:27:44.242Z,16.90
2023-01-17T03:30:11.565Z,16.00
2023-01-17T03:32:38.060Z,15.30
2023-01-17T03:35:05.176Z,17.70
2023-01-17T03:37:31.783Z,16.20
2023-01-17T03:39:58.267Z,17.40
2023-01-17T03:42:24.667Z,16.30
2023-01-17T03:44:51.176Z,16.90
2023-01-17T03:47:17.659Z,17.00
2023-01-17T03:49:44.129Z,17.30
2023-01-17T03:52:10.566Z,16.50
2023-01-17T03:54:37.169Z,17.90
2023-01-17T03:57:03.680Z,18.90
2023-01-17T03:59:30.126Z,18.50
2023-01-17T04:01:56.692Z,17.50
2023-01-17T04:04:23.201Z,16.40
2023-01-17T04:06:49.632Z,17.50
2023-01-17T04:09:16.117Z,17.30
2023-01-17T04:11:42.591Z,19.20
2023-01-17T04:14:08.992Z,14.70
2023-01-17T04:16:37.998Z,15.40
2023-01-17T04:19:04.506Z,15.20
2023-01-17T04:21:31.145Z,18.00
2023-01-17T04:23:57.547Z,15.70
2023-01-17T04:26:23.985Z,14.50
2023-01-17T04:28:50.425Z,17.00
2023-01-17T04:31:17.533Z,18.20
2023-01-17T04:33:44.151Z,13.90
2023-01-17T04:36:10.853Z,17.70
2023-01-17T04:38:37.445Z,17.70
2023-01-17T04:41:04.450Z,19.20
2023-01-17T04:43:30.936Z,15.70
2023-01-17T04:45:59.587Z,16.50
2023-01-17T04:48:27.247Z,15.40
2023-01-17T04:51:01.879Z,17.40
2023-01-17T04:53:28.529Z,15.30
2023-01-17T04:55:54.973Z,17.20
2023-01-17T04:58:21.503Z,17.00
2023-01-17T05:00:50.891Z,17.40
2023-01-17T05:03:19.337Z,18.10
2023-01-17T05:05:46.414Z,15.70
2023-01-17T05:08:13.122Z,14.90
2023-01-17T05:10:40.063Z,18.60
2023-01-17T05:13:07.015Z,17.50
2023-01-17T05:15:33.503Z,16.10
2023-01-17T05:18:00.040Z,21.10
2023-01-17T05:20:27.787Z,19.70
2023-01-17T05:22:57.133Z,20.20
2023-01-17T05:25:27.363Z,17.90
2023-01-17T05:27:54.580Z,18.10
2023-01-17T05:30:22.125Z,16.60
2023-01-17T05:32:54.879Z,20.90
2023-01-17T05:35:28.432Z,17.30
2023-01-17T05:37:55.995Z,21.50
2023-01-17T05:40:28.062Z,18.50
2023-01-17T05:42:56.878Z,23.30
2023-01-17T05:45:26.484Z,26.50
2023-01-17T05:47:55.653Z,26.50
2023-01-17T05:50:29.511Z,33.50
2023-01-17T05:52:59.935Z,27.20
2023-01-17T05:55:28.827Z,20.80
2023-01-17T05:57:55.950Z,21.40
2023-01-17T06:00:24.152Z,24.80
2023-01-17T06:02:55.044Z,24.10
2023-01-17T06:05:23.084Z,23.40
2023-01-17T06:07:50.103Z,20.80
2023-01-17T06:10:19.347Z,17.60
2023-01-17T06:12:47.185Z,17.40
2023-01-17T06:15:16.600Z,17.90
2023-01-17T06:17:43.595Z,18.00
2023-01-17T06:20:12.534Z,14.90
2023-01-17T06:22:39.137Z,18.10
2023-01-17T06:25:06.976Z,13.10
2023-01-17T06:27:33.676Z,17.40
2023-01-17T06:30:00.160Z,16.30
2023-01-17T06:32:26.921Z,14.90
2023-01-17T06:34:53.462Z,13.80
2023-01-17T06:37:19.970Z,10.60
2023-01-17T06:39:46.444Z,11.60
2023-01-17T06:42:12.986Z,12.40
2023-01-17T06:44:39.479Z,13.10
2023-01-17T06:47:05.986Z,11.00
2023-01-17T06:49:32.550Z,9.60
2023-01-17T06:51:59.062Z,12.20
2023-01-17T06:54:25.720Z,10.90
2023-01-17T06:56:52.176Z,10.80
2023-01-17T06:59:18.674Z,16.20
2023-01-17T07:01:45.345Z,11.80
2023-01-17T07:04:11.987Z,12.00
2023-01-17T07:06:38.599Z,12.20
2023-01-17T07:09:05.251Z,11.50
2023-01-17T07:11:32.293Z,10.80
2023-01-17T07:13:58.869Z,9.50
2023-01-17T07:16:25.614Z,8.30
2023-01-17T07:18:55.369Z,9.00
2023-01-17T07:21:22.562Z,10.00
2023-01-17T07:23:48.986Z,9.30
2023-01-17T07:26:17.298Z,10.90
2023-01-17T07:28:44.086Z,12.30
2023-01-17T07:31:11.067Z,10.40
2023-01-17T07:33:37.899Z,10.50
2023-01-17T07:36:09.239Z,10.10
2023-01-17T07:38:35.844Z,20.20
2023-01-17T07:41:02.584Z,18.50
2023-01-17T07:43:29.203Z,18.20
2023-01-17T07:45:56.623Z,21.20
2023-01-17T07:48:24.886Z,17.80
2023-01-17T07:50:57.020Z,17.30
2023-01-17T07:53:26.962Z,18.80
2023-01-17T07:55:53.735Z,18.20
2023-01-17T07:58:21.608Z,17.50
2023-01-17T08:00:48.281Z,12.10
2023-01-17T08:03:17.742Z,11.30
2023-01-17T08:05:55.123Z,10.70
2023-01-17T08:08:22.106Z,11.90
2023-01-17T08:10:49.496Z,13.60
2023-01-17T08:13:16.017Z,10.70
2023-01-17T08:15:42.492Z,12.30
2023-01-17T08:18:08.981Z,16.60
2023-01-17T08:20:35.509Z,11.90
2023-01-17T08:23:01.990Z,11.00
2023-01-17T08:25:28.463Z,11.40
2023-01-17T08:27:58.536Z,12.90
2023-01-17T08:30:25.922Z,19.00
2023-01-17T08:32:52.924Z,15.80
2023-01-17T08:35:20.207Z,12.80
2023-01-17T08:37:48.811Z,9.90
2023-01-17T08:40:18.415Z,10.80
2023-01-17T08:42:45.279Z,14.00
2023-01-17T08:45:12.935Z,15.10
2023-01-17T08:47:39.388Z,13.30
2023-01-17T08:50:09.892Z,17.80
2023-01-17T08:52:36.413Z,12.70
2023-01-17T08:55:05.894Z,14.50
2023-01-17T08:57:32.891Z,15.40
2023-01-17T08:59:59.321Z,15.30
2023-01-17T09:02:26.261Z,11.90
2023-01-17T09:04:53.708Z,12.30
2023-01-17T09:07:20.969Z,10.80
2023-01-17T09:09:47.570Z,13.30
2023-01-17T09:12:14.101Z,15.30
2023-01-17T09:14:40.561Z,15.20
2023-01-17T09:17:07.156Z,12.20
2023-01-17T09:19:35.345Z,13.00
2023-01-17T09:22:04.921Z,12.50
2023-01-17T09:24:32.752Z,12.10
2023-01-17T09:27:00.549Z,11.50
2023-01-17T09:29:27.776Z,12.10
2023-01-17T09:31:54.207Z,12.90
2023-01-17T09:34:21.317Z,10.50
2023-01-17T09:36:47.815Z,11.90
2023-01-17T09:39:15.252Z,13.60
2023-01-17T09:42:20.458Z,15.00
2023-01-17T09:44:53.506Z,16.40
2023-01-17T09:47:39.667Z,17.10
2023-01-17T09:50:53.695Z,11.40
2023-01-17T09:53:21.467Z,12.00
2023-01-17T09:55:58.060Z,12.40
2023-01-17T09:59:18.769Z,12.80
2023-01-17T10:02:06.039Z,13.60
2023-01-17T10:05:16.307Z,14.30
2023-01-17T10:08:16.727Z,17.40
2023-01-17T10:11:28.509Z,18.00
2023-01-17T10:14:16.888Z,15.70
2023-01-17T10:17:01.008Z,11.70
2023-01-17T10:20:01.235Z,12.70
2023-01-17T10:23:00.969Z,9.90
2023-01-17T10:25:43.893Z,10.20
2023-01-17T10:28:17.247Z,11.40
2023-01-17T10:31:00.616Z,9.90
2023-01-17T10:33:52.660Z,11.70
2023-01-17T10:36:29.991Z,12.60
2023-01-17T10:39:04.304Z,20.20
2023-01-17T10:41:43.584Z,14.80
2023-01-17T10:44:30.318Z,9.50
2023-01-17T10:47:19.648Z,15.30
2023-01-17T10:49:58.398Z,22.90
2023-01-17T10:53:34.092Z,13.10
2023-01-17T10:56:01.591Z,13.00
2023-01-17T10:58:35.056Z,19.00
2023-01-17T11:01:13.765Z,59.50
2023-01-17T11:03:40.791Z,39.30
2023-01-17T11:06:27.973Z,21.60
2023-01-17T11:08:56.763Z,21.70
2023-01-17T11:11:31.852Z,13.30
2023-01-17T11:14:02.618Z,13.10
2023-01-17T11:16:37.301Z,11.90
2023-01-17T11:19:36.407Z,15.30
2023-01-17T11:22:07.104Z,11.70
2023-01-17T11:24:42.028Z,8.80
2023-01-17T11:27:28.289Z,12.30
2023-01-17T11:30:18.007Z,11.10
2023-01-17T11:33:00.457Z,10.10
2023-01-17T11:35:46.629Z,9.20
2023-01-17T11:38:22.211Z,11.50
2023-01-17T11:40:50.631Z,16.70
2023-01-17T11:43:27.566Z,11.30
2023-01-17T11:46:18.979Z,9.60
2023-01-17T11:48:56.530Z,10.90
2023-01-17T11:51:34.126Z,16.60
2023-01-17T11:54:20.900Z,11.70
2023-01-17T11:56:47.398Z,15.70
2023-01-17T11:59:26.725Z,15.80
2023-01-17T12:02:11.953Z,13.40
2023-01-17T12:05:05.881Z,11.80
2023-01-17T12:07:59.186Z,10.00
2023-01-17T12:10:48.352Z,14.80
2023-01-17T12:13:55.685Z,17.80
2023-01-17T12:16:39.479Z,9.30
2023-01-17T12:19:25.487Z,12.80
2023-01-17T12:21:58.239Z,12.70
2023-01-17T12:25:15.186Z,16.20
2023-01-17T12:28:13.140Z,12.80
2023-01-17T12:31:14.293Z,14.80
2023-01-17T12:34:32.087Z,9.10
2023-01-17T12:37:06.882Z,8.80
2023-01-17T12:39:42.429Z,13.10
2023-01-17T12:42:18.581Z,9.50
2023-01-17T12:44:58.296Z,9.10
2023-01-17T12:47:25.601Z,13.60
2023-01-17T12:50:18.654Z,9.10
2023-01-17T12:52:59.346Z,11.30
2023-01-17T12:55:56.954Z,14.20
2023-01-17T12:58:29.330Z,14.20
2023-01-17T13:01:15.258Z,20.90
2023-01-17T13:04:00.256Z,15.20
2023-01-17T13:07:02.116Z,14.20
2023-01-17T13:09:41.544Z,20.30
2023-01-17T13:12:14.959Z,17.20
2023-01-17T13:14:41.741Z,26.50
2023-01-17T13:17:48.900Z,21.30
2023-01-17T13:20:47.430Z,18.20
2023-01-17T13:23:33.089Z,27.50
2023-01-17T13:26:02.228Z,28.50
2023-01-17T13:29:16.488Z,21.70
2023-01-17T13:32:07.160Z,24.30
2023-01-17T13:34:49.002Z,57.20
2023-01-17T13:37:48.107Z,42.60
2023-01-17T13:40:38.737Z,27.20
2023-01-17T13:43:14.046Z,18.60
2023-01-17T13:45:40.843Z,17.20
2023-01-17T13:48:29.013Z,35.60
2023-01-17T13:51:10.721Z,13.80
2023-01-17T13:53:39.914Z,17.80
2023-01-17T13:56:18.472Z,13.90
2023-01-17T13:58:50.127Z,21.30
2023-01-17T14:01:22.690Z,21.30
2023-01-17T14:03:49.603Z,18.30
2023-01-17T14:06:35.631Z,14.10
2023-01-17T14:09:07.927Z,13.40
2023-01-17T14:11:49.334Z,14.60
2023-01-17T14:14:49.596Z,21.10
2023-01-17T14:17:16.027Z,27.50
2023-01-17T14:19:48.423Z,23.40
2023-01-17T14:22:21.423Z,25.40
2023-01-17T14:25:09.804Z,23.50
2023-01-17T14:27:42.668Z,15.50
2023-01-17T14:30:27.305Z,14.50
2023-01-17T14:33:03.075Z,13.80
2023-01-17T14:35:59.113Z,14.80
2023-01-17T14:38:32.196Z,37.50
2023-01-17T14:41:20.331Z,54.20
2023-01-17T14:43:50.635Z,67.40
2023-01-17T14:46:32.519Z,45.30
2023-01-17T14:49:02.778Z,26.20
2023-01-17T14:51:29.981Z,18.80
2023-01-17T14:54:03.199Z,25.60
2023-01-17T14:56:31.770Z,19.90
2023-01-17T14:59:14.528Z,23.00
2023-01-17T15:01:48.054Z,24.70
2023-01-17T15:04:35.450Z,25.60
2023-01-17T15:07:01.929Z,32.30
2023-01-17T15:09:38.432Z,61.50
2023-01-17T15:12:14.109Z,42.70
2023-01-17T15:14:45.688Z,34.10
2023-01-17T15:17:14.825Z,31.80
2023-01-17T15:19:44.612Z,29.40
2023-01-17T15:22:12.523Z,36.20
2023-01-17T15:24:47.221Z,45.90
2023-01-17T15:27:16.218Z,35.50
2023-01-17T15:29:46.097Z,37.20
2023-01-17T15:32:23.863Z,27.50
2023-01-17T15:34:52.353Z,25.70
2023-01-17T15:37:32.675Z,20.30
2023-01-17T15:40:25.007Z,16.10
2023-01-17T15:43:01.004Z,17.80
2023-01-17T15:45:31.654Z,16.00
2023-01-17T15:48:39.315Z,18.20
2023-01-17T15:51:06.829Z,13.90
2023-01-17T15:53:37.957Z,16.80
2023-01-17T15:56:33.650Z,20.70
2023-01-17T15:59:43.550Z,21.90
2023-01-17T16:02:42.940Z,17.00
2023-01-17T16:05:22.918Z,17.70
2023-01-17T16:07:50.468Z,30.40
2023-01-17T16:10:39.026Z,21.00
2023-01-17T16:13:08.676Z,18.70
2023-01-17T16:15:37.569Z,19.20
2023-01-17T16:18:15.398Z,23.40
2023-01-17T16:20:49.354Z,27.90
2023-01-17T16:23:16.493Z,25.90
2023-01-17T16:25:44.596Z,24.80
2023-01-17T16:28:11.155Z,28.30
2023-01-17T16:30:37.902Z,33.40
2023-01-17T16:33:05.074Z,28.90
2023-01-17T16:35:34.586Z,28.20
2023-01-17T16:38:07.740Z,23.00
2023-01-17T16:40:46.867Z,27.50
2023-01-17T16:43:15.723Z,27.10
2023-01-17T16:45:47.032Z,26.00
2023-01-17T16:48:13.756Z,28.20
2023-01-17T16:50:48.295Z,34.20
2023-01-17T16:53:16.495Z,38.60
2023-01-17T16:55:44.477Z,50.10
2023-01-17T16:58:11.423Z,57.80
2023-01-17T17:00:40.269Z,58.90
2023-01-17T17:03:07.118Z,53.20
2023-01-17T17:05:34.162Z,59.70
2023-01-17T17:08:01.453Z,62.70
2023-01-17T17:10:27.957Z,69.60
2023-01-17T17:12:54.517Z,78.30
2023-01-17T17:15:21.628Z,81.50
2023-01-17T17:17:48.308Z,89.00
2023-01-17T17:20:15.818Z,105.90
2023-01-17T17:22:48.838Z,102.40
2023-01-17T17:25:16.099Z,98.60
2023-01-17T17:27:42.994Z,79.30
2023-01-17T17:30:11.351Z,96.90
2023-01-17T17:32:37.903Z,101.40
2023-01-17T17:35:05.630Z,110.30
2023-01-17T17:37:32.513Z,102.30
2023-01-17T17:39:58.955Z,97.10
2023-01-17T17:42:25.651Z,61.60
2023-01-17T17:44:52.315Z,48.20
2023-01-17T17:47:18.810Z,43.00
2023-01-17T17:49:45.307Z,38.80
2023-01-17T17:52:11.927Z,40.20
2023-01-17T17:54:38.454Z,48.20
2023-01-17T17:57:05.237Z,43.60
2023-01-17T17:59:31.843Z,39.80
2023-01-17T18:01:59.757Z,39.20
2023-01-17T18:04:27.233Z,40.50
2023-01-17T18:06:58.234Z,43.20
2023-01-17T18:09:24.953Z,37.90
2023-01-17T18:11:51.888Z,46.70
2023-01-17T18:14:21.184Z,88.00
2023-01-17T18:16:48.056Z,123.70
2023-01-17T18:19:22.116Z,127.70
2023-01-17T18:21:51.250Z,128.30
2023-01-17T18:24:21.962Z,115.70
2023-01-17T18:26:50.167Z,114.60
2023-01-17T18:29:18.774Z,105.60
2023-01-17T18:31:47.702Z,76.70
2023-01-17T18:34:17.911Z,77.00
2023-01-17T18:36:44.854Z,80.10
2023-01-17T18:39:15.792Z,73.90
2023-01-17T18:41:43.448Z,75.40
2023-01-17T18:44:10.809Z,71.80
2023-01-17T18:46:38.335Z,73.70
2023-01-17T18:49:05.043Z,63.20
2023-01-17T18:51:34.363Z,70.40
2023-01-17T18:54:05.929Z,71.70
2023-01-17T18:56:34.394Z,60.20
2023-01-17T18:59:02.220Z,61.10
2023-01-17T19:01:35.061Z,64.90
2023-01-17T19:04:04.343Z,78.30
2023-01-17T19:06:41.259Z,88.10
2023-01-17T19:09:10.918Z,97.30
2023-01-17T19:11:38.143Z,98.40
2023-01-17T19:14:06.312Z,106.30
2023-01-17T19:16:38.972Z,100.40
2023-01-17T19:19:09.839Z,97.90
2023-01-17T19:21:36.562Z,99.70
2023-01-17T19:24:03.663Z,108.30
2023-01-17T19:26:30.323Z,102.70
2023-01-17T19:29:03.647Z,109.20
2023-01-17T19:31:35.687Z,91.60
2023-01-17T19:34:02.506Z,97.60
2023-01-17T19:36:34.400Z,96.60
2023-01-17T19:39:05.199Z,119.90
2023-01-17T19:41:36.053Z,142.90
2023-01-17T19:44:07.549Z,158.90
2023-01-17T19:46:35.824Z,161.80
2023-01-17T19:49:03.893Z,156.10
2023-01-17T19:51:30.414Z,153.50
2023-01-17T19:54:01.057Z,161.90
2023-01-17T19:56:28.238Z,152.90
2023-01-17T19:58:54.728Z,156.70
2023-01-17T20:01:28.595Z,155.90
2023-01-17T20:03:58.027Z,141.20
2023-01-17T20:06:29.238Z,105.60
2023-01-17T20:08:56.595Z,104.40
2023-01-17T20:11:26.182Z,92.70
2023-01-17T20:13:55.978Z,83.00
2023-01-17T20:16:24.995Z,69.90
2023-01-17T20:18:52.341Z,74.80
2023-01-17T20:21:22.750Z,88.20
2023-01-17T20:23:51.948Z,85.10
2023-01-17T20:26:31.036Z,83.60
2023-01-17T20:28:57.695Z,68.20
2023-01-17T20:31:26.095Z,83.90
2023-01-17T20:33:55.546Z,58.70
2023-01-17T20:36:25.805Z,67.70
2023-01-17T20:38:54.375Z,98.60
2023-01-17T20:41:24.909Z,80.00
2023-01-17T20:43:58.031Z,79.50
2023-01-17T20:46:27.444Z,75.60
2023-01-17T20:48:57.798Z,116.30
2023-01-17T20:51:26.963Z,103.70
2023-01-17T20:53:59.848Z,105.60
2023-01-17T20:56:27.537Z,90.50
2023-01-17T20:58:54.497Z,90.30
2023-01-17T21:01:24.440Z,97.00
2023-01-17T21:03:53.818Z,103.90
2023-01-17T21:06:23.393Z,96.70
2023-01-17T21:08:50.681Z,112.00
2023-01-17T21:11:22.770Z,100.50
2023-01-17T21:13:49.744Z,96.80
2023-01-17T21:16:18.118Z,91.00
2023-01-17T21:18:51.850Z,98.80
2023-01-17T21:21:25.941Z,88.60
2023-01-17T21:23:57.220Z,75.90
2023-01-17T21:26:25.839Z,63.20
2023-01-17T21:28:53.762Z,76.40
2023-01-17T21:31:26.468Z,59.20
2023-01-17T21:33:59.865Z,61.50
2023-01-17T21:36:30.591Z,56.40
2023-01-17T21:38:59.137Z,57.00
2023-01-17T21:41:29.199Z,57.00
2023-01-17T21:43:59.802Z,67.70
2023-01-17T21:46:28.253Z,72.40
2023-01-17T21:48:56.651Z,66.70
2023-01-17T21:51:24.220Z,66.00
2023-01-17T21:53:50.756Z,68.30
2023-01-17T21:56:35.782Z,70.10
2023-01-17T21:59:02.314Z,65.40
2023-01-17T22:01:32.884Z,64.10
2023-01-17T22:04:03.987Z,61.60
2023-01-17T22:06:39.416Z,63.80
2023-01-17T22:09:06.203Z,56.20
2023-01-17T22:11:36.635Z,59.50
2023-01-17T22:14:07.411Z,57.40
2023-01-17T22:16:33.934Z,57.90
2023-01-17T22:19:00.499Z,59.60
2023-01-17T22:21:28.650Z,67.90
2023-01-17T22:23:59.146Z,67.50
2023-01-17T22:26:30.057Z,62.80
2023-01-17T22:29:00.528Z,60.70
2023-01-17T22:31:28.245Z,52.70
2023-01-17T22:33:58.055Z,61.60
2023-01-17T22:36:25.070Z,58.50
2023-01-17T22:38:52.196Z,60.20
2023-01-17T22:41:24.723Z,56.60
2023-01-17T22:43:54.407Z,57.70
2023-01-17T22:46:27.672Z,55.40
2023-01-17T22:48:56.054Z,60.50
2023-01-17T22:51:24.784Z,67.00
2023-01-17T22:53:58.211Z,64.40
2023-01-17T22:56:30.157Z,59.50
2023-01-17T22:58:58.985Z,54.20
2023-01-17T23:01:29.146Z,57.30
2023-01-17T23:04:03.399Z,53.60
2023-01-17T23:06:36.217Z,65.50
2023-01-17T23:09:11.481Z,60.40
2023-01-17T23:11:49.856Z,63.80
2023-01-17T23:14:27.937Z,63.20
2023-01-17T23:17:16.181Z,62.20
2023-01-17T23:19:52.486Z,55.20
2023-01-17T23:22:23.213Z,61.50
2023-01-17T23:24:57.274Z,57.00
2023-01-17T23:27:59.423Z,65.00
2023-01-17T23:30:35.466Z,53.90
2023-01-17T23:33:14.661Z,53.80
2023-01-17T23:35:44.227Z,56.30
2023-01-17T23:38:29.433Z,53.30
2023-01-17T23:41:24.880Z,52.40
2023-01-17T23:43:57.187Z,51.30
2023-01-17T23:46:25.718Z,45.80
2023-01-17T23:48:52.929Z,54.80
2023-01-17T23:51:19.521Z,56.40
2023-01-17T23:53:45.922Z,57.60
2023-01-17T23:56:23.022Z,58.30
2023-01-17T23:58:49.517Z,46.50
